Time;durP1;ratioP1;P1;durP2;ratioP2;P2;SDS_P1;SDS_P2;PMS_P1;PMS_P2;Temp;Humidity;BMP_temperature;BMP_pressure;BME280_temperature;BME280_humidity;BME280_pressure;Samples;Min_cycle;Max_cycle;Signal;HPM_P1;HPM_P2
2022/09/29 00:00:29;;;;;;;3.08;2.20;;;;;;;19.86;51.42;99867.97;5007976;28;20087;-40
2022/09/29 00:02:54;;;;;;;3.55;2.00;;;;;;;19.79;51.23;99856.09;5008803;28;20033;-40
2022/09/29 00:05:20;;;;;;;3.55;2.22;;;;;;;19.80;51.80;99866.69;5008606;28;20926;-40
2022/09/29 00:07:45;;;;;;;3.03;2.00;;;;;;;19.78;51.32;99860.63;5009474;28;20522;-41
2022/09/29 00:10:11;;;;;;;3.25;2.05;;;;;;;19.78;51.84;99865.13;5010077;28;21510;-40
2022/09/29 00:12:36;;;;;;;3.22;2.08;;;;;;;19.76;51.51;99864.47;5008307;28;20144;-40
2022/09/29 00:15:02;;;;;;;3.70;2.00;;;;;;;19.71;51.91;99864.09;5009717;28;20092;-39
2022/09/29 00:17:27;;;;;;;2.90;2.13;;;;;;;19.72;51.36;99866.59;5008708;28;20481;-49
2022/09/29 00:19:53;;;;;;;2.95;2.00;;;;;;;19.72;51.50;99866.59;5009139;28;20041;-51
2022/09/29 00:22:18;;;;;;;2.38;1.98;;;;;;;19.73;51.88;99867.44;5008383;28;20030;-50
2022/09/29 00:24:45;;;;;;;2.33;1.95;;;;;;;19.70;51.34;99867.75;5010682;28;20045;-49
2022/09/29 00:27:16;;;;;;;2.83;2.00;;;;;;;19.72;51.62;99871.97;5040401;28;20122;-48
2022/09/29 00:29:42;;;;;;;3.92;1.80;;;;;;;19.68;51.52;99861.69;5009249;28;20548;-49
2022/09/29 00:32:07;;;;;;;2.85;1.98;;;;;;;19.66;51.50;99869.91;5008743;28;20025;-50
2022/09/29 00:34:32;;;;;;;2.00;1.80;;;;;;;19.63;51.82;99873.72;5008977;28;20041;-49
2022/09/29 00:36:58;;;;;;;2.63;1.83;;;;;;;19.65;51.81;99868.19;5007983;28;20658;-49
2022/09/29 00:39:23;;;;;;;2.90;1.90;;;;;;;19.61;51.89;99862.28;5010056;28;20034;-49
2022/09/29 00:41:48;;;;;;;2.03;1.80;;;;;;;19.60;51.63;99859.75;5008179;28;20272;-51
2022/09/29 00:44:14;;;;;;;2.05;1.85;;;;;;;19.62;51.46;99857.78;5008881;28;20037;-51
2022/09/29 00:46:48;;;;;;;2.15;1.77;;;;;;;19.63;51.69;99857.63;5008274;28;20095;-41
2022/09/29 00:49:17;;;;;;;2.00;1.80;;;;;;;19.62;51.48;99855.09;5040836;28;20660;-41
2022/09/29 00:51:49;;;;;;;2.70;1.90;;;;;;;19.58;51.53;99862.59;5007545;28;20040;-41
2022/09/29 00:54:16;;;;;;;3.72;2.00;;;;;;;19.61;51.46;99856.09;5009155;28;20127;-41
2022/09/29 00:56:44;;;;;;;2.47;1.75;;;;;;;19.57;51.32;99858.22;5005616;28;20029;-41
2022/09/29 00:59:15;;;;;;;2.17;1.70;;;;;;;19.56;51.32;99861.06;5008489;28;20042;-41
2022/09/29 01:01:40;;;;;;;;;;;;;;;19.55;51.80;99867.41;5009265;28;20615;-40
2022/09/29 01:04:14;;;;;;;2.30;1.80;;;;;;;19.53;51.79;99869.41;5008128;28;19925;-40
2022/09/29 01:06:46;;;;;;;2.35;1.75;;;;;;;19.52;51.72;99860.50;5007933;28;21068;-41
2022/09/29 01:09:22;;;;;;;1.80;1.70;;;;;;;19.53;51.69;99864.91;5008973;28;20095;-40
2022/09/29 01:11:48;;;;;;;2.35;1.90;;;;;;;19.50;51.59;99862.50;5005028;28;20436;-41
2022/09/29 01:14:15;;;;;;;2.00;1.70;;;;;;;19.48;51.76;99859.97;5007999;28;20033;-40
2022/09/29 01:16:40;;;;;;;2.28;1.80;;;;;;;19.50;51.37;99859.81;5008603;28;20037;-40
2022/09/29 01:19:12;;;;;;;2.05;1.73;;;;;;;19.45;51.62;99856.72;5008125;28;20030;-41
2022/09/29 01:21:54;;;;;;;2.05;1.60;;;;;;;19.44;51.74;99852.38;5007003;28;20044;-40
2022/09/29 01:24:40;;;;;;;2.75;1.83;;;;;;;19.42;51.70;99851.69;5006664;28;20037;-41
2022/09/29 01:27:18;;;;;;;2.10;1.83;;;;;;;19.45;51.48;99860.28;5007381;28;20486;-40
2022/09/29 01:29:59;;;;;;;1.92;1.70;;;;;;;19.44;51.53;99855.06;5006838;28;20051;-41
2022/09/29 01:33:11;;;;;;;2.35;1.80;;;;;;;19.44;51.53;99853.22;5007085;28;20531;-50
2022/09/29 01:36:07;;;;;;;2.72;1.75;;;;;;;19.44;51.80;99858.59;5008287;28;20666;-50
2022/09/29 01:38:38;;;;;;;2.97;1.65;;;;;;;19.43;51.50;99853.38;5007308;28;21357;-49
2022/09/29 01:41:10;;;;;;;;;;;;;;;19.42;51.30;99857.03;5007924;28;20033;-49
2022/09/29 01:43:45;;;;;;;1.85;1.52;;;;;;;19.40;51.79;99861.72;5008854;28;20269;-49
2022/09/29 01:46:20;;;;;;;1.73;1.60;;;;;;;19.34;51.60;99856.97;5007814;28;20094;-49
2022/09/29 01:48:49;;;;;;;2.03;1.80;;;;;;;19.37;51.52;99853.97;5006475;28;20083;-52
2022/09/29 01:51:21;;;;;;;2.22;1.75;;;;;;;19.34;51.42;99859.66;5007565;28;20059;-49
2022/09/29 01:53:50;;;;;;;2.72;1.60;;;;;;;19.35;51.77;99862.19;5005179;28;20032;-41
2022/09/29 01:56:31;;;;;;;1.70;1.60;;;;;;;19.35;51.34;99858.63;5039112;28;20171;-40
2022/09/29 01:59:07;;;;;;;1.67;1.58;;;;;;;19.32;51.63;99866.00;5006854;28;20116;-50
2022/09/29 02:01:37;;;;;;;2.35;1.63;;;;;;;19.35;51.55;99859.50;5007798;28;20033;-50
2022/09/29 02:04:35;;;;;;;2.83;1.67;;;;;;;19.34;51.73;99863.16;5007152;28;20029;-49
2022/09/29 02:07:15;;;;;;;1.60;1.50;;;;;;;19.30;51.50;99859.94;4985950;28;20052;-40
2022/09/29 02:09:45;;;;;;;2.10;1.67;;;;;;;19.31;51.72;99869.69;5006069;28;20049;-40
2022/09/29 02:12:15;;;;;;;1.90;1.70;;;;;;;19.28;51.67;99861.06;5006871;28;20148;-50
2022/09/29 02:14:44;;;;;;;1.60;1.50;;;;;;;19.28;51.50;99853.03;5006157;28;20645;-40
2022/09/29 02:17:18;;;;;;;2.80;1.52;;;;;;;19.28;51.49;99859.25;5007328;28;20379;-48
2022/09/29 02:19:46;;;;;;;2.35;1.80;;;;;;;19.28;51.51;99861.94;5005839;28;20033;-40
2022/09/29 02:22:12;;;;;;;2.20;1.63;;;;;;;19.28;51.70;99861.94;5006683;28;20155;-40
2022/09/29 02:24:37;;;;;;;1.63;1.50;;;;;;;19.27;51.97;99856.69;5006098;28;20485;-49
2022/09/29 02:27:03;;;;;;;1.60;1.48;;;;;;;19.25;51.69;99861.38;5007376;28;20038;-41
2022/09/29 02:29:30;;;;;;;2.00;1.60;;;;;;;19.24;51.64;99854.31;5006023;28;20121;-40
2022/09/29 02:32:00;;;;;;;2.40;1.65;;;;;;;19.25;51.45;99856.00;5003883;28;20048;-40
2022/09/29 02:34:26;;;;;;;2.10;1.70;;;;;;;19.19;51.50;99854.75;5005831;28;20064;-40
2022/09/29 02:37:03;;;;;;;1.98;1.60;;;;;;;19.20;51.76;99861.00;5005706;28;20060;-40
2022/09/29 02:39:49;;;;;;;2.20;1.60;;;;;;;19.23;51.71;99858.00;5006101;28;20041;-40
2022/09/29 02:42:29;;;;;;;1.77;1.60;;;;;;;19.16;51.42;99863.94;5005208;28;20040;-41
2022/09/29 02:45:20;;;;;;;1.70;1.60;;;;;;;19.15;51.95;99859.56;5000526;28;20742;-40
2022/09/29 02:48:27;;;;;;;1.70;1.60;;;;;;;19.18;51.95;99860.28;5006565;28;20126;-40
2022/09/29 02:51:11;;;;;;;2.05;1.70;;;;;;;19.16;51.81;99857.75;4992320;28;20052;-40
2022/09/29 02:53:48;;;;;;;1.83;1.52;;;;;;;19.13;51.92;99861.56;5005098;28;20045;-40
2022/09/29 02:56:43;;;;;;;2.97;1.50;;;;;;;19.14;51.66;99867.78;5006068;28;20078;-40
2022/09/29 02:59:23;;;;;;;1.95;1.70;;;;;;;19.10;51.64;99866.38;5005590;28;20048;-39
2022/09/29 03:01:54;;;;;;;1.63;1.50;;;;;;;19.15;51.74;99869.47;5006657;28;21181;-40
2022/09/29 03:04:23;;;;;;;2.00;1.80;;;;;;;19.14;51.52;99859.72;5005095;28;20061;-40
2022/09/29 03:06:49;;;;;;;1.95;1.50;;;;;;;19.13;51.62;99866.06;5006542;28;20025;-40
2022/09/29 03:09:14;;;;;;;1.92;1.60;;;;;;;19.10;51.63;99866.38;5003154;28;20099;-40
2022/09/29 03:11:40;;;;;;;3.47;1.60;;;;;;;19.07;51.81;99869.38;5005909;28;20065;-41
2022/09/29 03:14:07;;;;;;;2.88;1.60;;;;;;;19.10;51.79;99871.75;5005728;28;20402;-41
2022/09/29 03:16:34;;;;;;;2.83;1.60;;;;;;;19.10;51.48;99872.59;5005652;28;20033;-40
2022/09/29 03:18:59;;;;;;;2.33;1.60;;;;;;;19.11;51.62;99876.13;5005710;28;21129;-41
2022/09/29 03:21:25;;;;;;;1.83;1.60;;;;;;;19.06;51.64;99876.56;5006613;28;20349;-40
2022/09/29 03:23:50;;;;;;;2.28;1.50;;;;;;;19.06;51.79;99878.41;5004874;28;20041;-41
2022/09/29 03:26:15;;;;;;;2.08;1.77;;;;;;;19.05;51.67;99868.66;5004893;28;20124;-40
2022/09/29 03:28:41;;;;;;;2.03;1.60;;;;;;;19.04;51.89;99869.66;4989049;28;20522;-40
2022/09/29 03:31:10;;;;;;;2.00;1.80;;;;;;;19.06;51.58;99884.63;5005730;28;20138;-40
2022/09/29 03:33:38;;;;;;;1.98;1.52;;;;;;;19.05;51.56;99874.03;5004680;28;20033;-49
2022/09/29 03:36:05;;;;;;;1.95;1.75;;;;;;;19.04;51.33;99875.03;5004225;28;20052;-50
2022/09/29 03:38:32;;;;;;;2.20;1.70;;;;;;;19.03;51.69;99886.75;5004762;28;20037;-49
2022/09/29 03:40:57;;;;;;;2.97;1.60;;;;;;;19.04;51.56;99881.25;5006116;28;20128;-49
2022/09/29 03:43:23;;;;;;;2.70;1.70;;;;;;;19.02;51.80;99890.44;5004956;28;20397;-49
2022/09/29 03:45:49;;;;;;;3.05;1.70;;;;;;;19.01;51.48;99888.75;5003430;28;20127;-49
2022/09/29 03:48:15;;;;;;;1.52;1.40;;;;;;;18.98;51.86;99889.88;5004511;28;20025;-49
2022/09/29 03:50:41;;;;;;;2.17;1.70;;;;;;;19.00;51.47;99885.19;4999703;28;20033;-49
2022/09/29 03:53:06;;;;;;;3.22;1.77;;;;;;;18.94;51.89;99883.97;4999008;28;20037;-50
2022/09/29 03:55:31;;;;;;;2.13;1.77;;;;;;;18.95;51.93;99888.34;5003094;28;20098;-50
2022/09/29 03:57:57;;;;;;;4.20;1.73;;;;;;;18.96;51.59;99895.41;5005054;28;20083;-53
2022/09/29 04:00:22;;;;;;;2.55;1.80;;;;;;;18.92;51.40;99895.84;5001726;28;20029;-49
2022/09/29 04:02:47;;;;;;;2.15;1.70;;;;;;;18.92;51.77;99893.97;5033520;28;20033;-52
2022/09/29 04:05:13;;;;;;;2.40;1.60;;;;;;;18.93;51.39;99893.00;5004227;28;20034;-48
2022/09/29 04:07:38;;;;;;;1.90;1.52;;;;;;;18.92;51.67;99896.66;5003861;28;20100;-52
2022/09/29 04:10:04;;;;;;;2.78;1.60;;;;;;;18.93;51.45;99897.53;5006669;28;20187;-41
2022/09/29 04:12:29;;;;;;;2.00;1.70;;;;;;;18.92;51.62;99891.31;4986584;28;20045;-40
2022/09/29 04:14:55;;;;;;;2.95;1.80;;;;;;;18.89;51.60;99896.94;5004212;28;20318;-41
2022/09/29 04:17:20;;;;;;;3.08;1.70;;;;;;;18.90;51.59;99893.31;5003773;28;20359;-49
2022/09/29 04:19:46;;;;;;;2.25;1.73;;;;;;;18.90;51.27;99898.66;5004545;28;20028;-49
2022/09/29 04:22:14;;;;;;;2.10;1.90;;;;;;;18.88;51.58;99894.41;5004200;28;20335;-40
2022/09/29 04:24:39;;;;;;;2.88;2.00;;;;;;;18.88;51.29;99903.28;5005320;28;20040;-40
2022/09/29 04:27:05;;;;;;;3.22;2.15;;;;;;;18.90;51.40;99903.16;5004942;28;20045;-40
2022/09/29 04:29:30;;;;;;;2.00;1.80;;;;;;;18.87;51.57;99904.28;5006014;28;20030;-41
2022/09/29 04:31:56;;;;;;;1.75;1.65;;;;;;;18.84;51.38;99902.72;5004584;28;20703;-40
2022/09/29 04:34:21;;;;;;;2.88;2.00;;;;;;;18.86;51.21;99907.09;5005263;28;20034;-41
2022/09/29 04:36:46;;;;;;;2.80;2.00;;;;;;;18.95;51.22;99906.25;5005547;28;20069;-40
2022/09/29 04:39:12;;;;;;;3.03;2.00;;;;;;;19.17;50.71;99907.75;5002701;28;20041;-41
2022/09/29 04:41:38;;;;;;;1.92;1.80;;;;;;;19.33;50.47;99907.09;5004941;28;21408;-40
2022/09/29 04:44:05;;;;;;;2.50;1.75;;;;;;;19.48;50.08;99912.84;5005447;28;20048;-49
2022/09/29 04:46:30;;;;;;;1.83;1.70;;;;;;;19.56;49.37;99915.59;5004749;28;20610;-49
2022/09/29 04:48:55;;;;;;;3.15;1.90;;;;;;;19.65;49.62;99925.47;5006431;28;20110;-49
2022/09/29 04:51:21;;;;;;;2.78;1.95;;;;;;;19.71;49.24;99921.31;5008254;28;20033;-50
2022/09/29 04:53:46;;;;;;;2.40;1.88;;;;;;;19.79;49.73;99921.41;5007585;28;20124;-49
2022/09/29 04:56:12;;;;;;;1.75;1.65;;;;;;;19.88;49.16;99925.06;5008417;28;20139;-53
2022/09/29 04:58:37;;;;;;;2.85;2.03;;;;;;;19.98;48.89;99928.50;5009105;28;20124;-49
2022/09/29 05:01:12;;;;;;;2.15;1.95;;;;;;;20.09;48.67;99924.78;5006971;28;20125;-50
2022/09/29 05:03:38;;;;;;;1.90;1.65;;;;;;;20.17;48.12;99925.81;5008229;28;20029;-48
2022/09/29 05:06:04;;;;;;;2.03;1.80;;;;;;;20.22;48.08;99937.81;5009037;28;20862;-50
2022/09/29 05:08:30;;;;;;;2.08;1.80;;;;;;;20.30;48.06;99935.19;5007931;28;21505;-49
2022/09/29 05:10:55;;;;;;;3.65;1.90;;;;;;;20.38;48.26;99945.19;5006156;28;20064;-40
2022/09/29 05:13:20;;;;;;;2.05;1.77;;;;;;;20.45;47.91;99938.19;5006739;28;20139;-41
2022/09/29 05:15:46;;;;;;;2.13;1.88;;;;;;;20.54;47.90;99938.28;4993375;28;21451;-40
2022/09/29 05:18:11;;;;;;;2.00;1.80;;;;;;;20.59;47.92;99934.09;5008544;28;20048;-40
2022/09/29 05:20:36;;;;;;;2.15;1.80;;;;;;;20.58;47.44;99943.16;5006831;28;20108;-40
2022/09/29 05:23:07;;;;;;;1.98;1.70;;;;;;;20.60;47.50;99940.31;5007193;28;20091;-41
2022/09/29 05:25:34;;;;;;;2.50;1.70;;;;;;;20.67;47.61;99954.84;5009213;28;20486;-40
2022/09/29 05:27:59;;;;;;;2.15;1.90;;;;;;;20.70;47.82;99954.56;5007654;28;20156;-40
2022/09/29 05:30:24;;;;;;;4.20;1.85;;;;;;;20.74;47.73;99949.72;5008372;28;20042;-40
2022/09/29 05:32:50;;;;;;;3.17;2.08;;;;;;;20.77;47.56;99952.94;5007468;28;20168;-40
2022/09/29 05:35:15;;;;;;;1.90;1.70;;;;;;;20.82;47.19;99955.16;5006939;28;20091;-41
2022/09/29 05:37:41;;;;;;;1.88;1.67;;;;;;;20.83;47.17;99964.94;5007067;28;20057;-41
2022/09/29 05:40:07;;;;;;;2.10;1.80;;;;;;;20.85;47.25;99962.06;5009068;28;20890;-40
2022/09/29 05:42:32;;;;;;;2.80;1.83;;;;;;;20.92;47.06;99963.13;5007012;28;20086;-40
2022/09/29 05:44:58;;;;;;;2.67;1.92;;;;;;;20.96;47.49;99964.50;5006865;28;20741;-40
2022/09/29 05:47:23;;;;;;;2.03;1.80;;;;;;;20.94;46.99;99961.97;5007706;28;20168;-42
2022/09/29 05:49:48;;;;;;;3.45;2.10;;;;;;;20.99;47.11;99966.88;5007210;28;20119;-41
2022/09/29 05:52:14;;;;;;;3.63;2.10;;;;;;;21.05;47.09;99973.47;5008135;28;20131;-41
2022/09/29 05:54:39;;;;;;;2.70;2.20;;;;;;;21.04;47.08;99975.31;5006857;28;20035;-41
2022/09/29 05:57:04;;;;;;;2.50;2.10;;;;;;;21.02;47.65;99976.47;5008120;28;21499;-41
2022/09/29 05:59:30;;;;;;;3.20;2.00;;;;;;;21.02;47.19;99971.09;5007906;28;20037;-41
2022/09/29 06:01:55;;;;;;;4.25;2.05;;;;;;;21.04;47.24;99969.94;5006980;28;20041;-41
2022/09/29 06:04:21;;;;;;;2.78;2.00;;;;;;;21.05;47.01;99965.38;5006921;28;20034;-40
2022/09/29 06:06:47;;;;;;;2.58;2.00;;;;;;;21.12;47.41;99971.84;5006579;28;20274;-42
2022/09/29 06:09:13;;;;;;;3.47;2.00;;;;;;;21.10;46.85;99966.63;5007040;28;20057;-41
2022/09/29 06:11:38;;;;;;;2.67;2.00;;;;;;;21.05;46.87;99965.38;5006899;28;21950;-41
2022/09/29 06:14:04;;;;;;;2.30;1.90;;;;;;;20.99;46.93;99966.03;5007221;28;20064;-41
2022/09/29 06:16:31;;;;;;;3.83;2.20;;;;;;;20.94;47.42;99961.97;5005076;28;20037;-42
2022/09/29 06:19:01;;;;;;;3.55;2.30;;;;;;;20.91;46.97;99973.03;5006286;28;20477;-41
2022/09/29 06:21:28;;;;;;;4.38;2.53;;;;;;;20.89;47.52;99976.91;5007450;28;20597;-41
2022/09/29 06:23:55;;;;;;;3.35;2.30;;;;;;;20.90;47.12;99986.66;5005339;28;20572;-41
2022/09/29 06:26:21;;;;;;;3.50;2.47;;;;;;;20.93;47.37;99978.28;5006812;28;21334;-41
2022/09/29 06:28:47;;;;;;;4.93;2.58;;;;;;;20.95;47.44;99979.81;5006511;28;20486;-41
2022/09/29 06:31:18;;;;;;;4.15;2.45;;;;;;;20.99;47.39;99980.34;5004762;28;20025;-41
2022/09/29 06:33:44;;;;;;;4.30;2.50;;;;;;;20.93;47.09;99980.97;5005985;28;20569;-41
2022/09/29 06:39:19;;;;;;;4.05;2.30;;;;;;;20.87;46.97;99990.50;5005641;28;20103;-41
2022/09/29 06:41:50;;;;;;;4.30;2.30;;;;;;;20.88;46.94;99996.72;5007002;28;20025;-41
2022/09/29 06:44:16;;;;;;;4.18;2.33;;;;;;;20.86;47.42;99990.69;5002784;28;20097;-41
2022/09/29 06:46:42;;;;;;;3.58;2.40;;;;;;;20.84;47.13;100000.75;5004681;28;20045;-41
2022/09/29 06:49:07;;;;;;;3.67;2.53;;;;;;;20.82;47.43;100002.72;5004007;28;20687;-41
2022/09/29 06:51:34;;;;;;;4.20;2.53;;;;;;;20.80;47.29;100010.97;5006745;28;20148;-41
2022/09/29 06:53:59;;;;;;;4.25;2.80;;;;;;;20.79;47.04;100001.19;5005552;28;20494;-42
2022/09/29 06:56:25;;;;;;;4.25;2.50;;;;;;;20.77;47.62;100014.81;5005895;28;21182;-41
2022/09/29 06:58:50;;;;;;;4.72;2.67;;;;;;;20.75;47.46;100015.97;5006918;28;20561;-51
2022/09/29 07:01:15;;;;;;;3.60;2.45;;;;;;;20.71;47.05;100025.38;5005266;28;20045;-51
2022/09/29 07:03:41;;;;;;;3.80;2.17;;;;;;;20.69;47.65;100019.25;5005414;28;20367;-50
2022/09/29 07:06:09;;;;;;;4.22;2.60;;;;;;;20.66;47.63;100020.41;5006140;28;20143;-51
2022/09/29 07:08:35;;;;;;;3.95;2.40;;;;;;;20.62;47.62;100025.25;5004309;28;20052;-50
2022/09/29 07:11:02;;;;;;;5.38;2.70;;;;;;;20.61;47.77;100022.72;5003031;28;20323;-50
2022/09/29 07:13:27;;;;;;;3.53;2.40;;;;;;;20.59;47.57;100022.88;5003139;28;20029;-50
2022/09/29 07:15:53;;;;;;;4.78;2.58;;;;;;;20.57;47.78;100021.34;5003874;28;22189;-51
2022/09/29 07:18:19;;;;;;;4.30;2.33;;;;;;;20.54;47.56;100033.25;5005225;28;20195;-50
2022/09/29 07:20:44;;;;;;;15.55;2.95;;;;;;;20.68;47.77;100028.31;4997644;28;20585;-46
2022/09/29 07:23:10;;;;;;;7.28;2.97;;;;;;;20.75;47.42;100038.31;4996819;28;20036;-43
2022/09/29 07:25:36;;;;;;;9.13;3.00;;;;;;;20.80;47.33;100032.50;5002071;28;20470;-42
2022/09/29 07:28:01;;;;;;;8.48;2.90;;;;;;;20.85;47.39;100034.72;4996606;28;20032;-42
2022/09/29 07:30:27;;;;;;;8.20;2.78;;;;;;;20.86;47.33;100034.56;4997708;28;20100;-44
2022/09/29 07:32:54;;;;;;;6.95;2.80;;;;;;;20.86;47.84;100039.94;4997997;28;20029;-44
2022/09/29 07:35:20;;;;;;;4.43;2.60;;;;;;;20.83;47.55;100040.28;4998904;28;20033;-37
2022/09/29 07:37:52;;;;;;;4.43;2.60;;;;;;;20.87;48.10;100038.97;4997755;28;20584;-37
2022/09/29 07:40:21;;;;;;;4.50;2.60;;;;;;;20.85;47.95;100040.94;4999979;28;20441;-37
2022/09/29 07:42:46;;;;;;;5.00;2.70;;;;;;;20.88;47.69;100037.09;4998201;28;20025;-37
2022/09/29 07:45:12;;;;;;;6.20;3.03;;;;;;;20.85;48.14;100051.72;4998103;28;20127;-44
2022/09/29 07:47:37;;;;;;;9.70;3.45;;;;;;;20.88;47.94;100054.09;5001002;28;20410;-44
2022/09/29 07:50:03;;;;;;;13.13;4.47;;;;;;;20.89;47.89;100057.63;5000918;28;20033;-45
2022/09/29 07:52:28;;;;;;;13.32;4.90;;;;;;;20.94;47.94;100063.38;5000696;28;20103;-45
2022/09/29 07:54:53;;;;;;;14.48;5.25;;;;;;;20.94;47.91;100058.84;5000073;28;20052;-47
2022/09/29 07:57:19;;;;;;;18.38;5.35;;;;;;;20.98;47.93;100063.94;5000388;28;20553;-45
2022/09/29 07:59:44;;;;;;;17.65;6.22;;;;;;;21.03;47.75;100070.53;5002648;28;20034;-47
2022/09/29 08:02:10;;;;;;;14.77;5.90;;;;;;;21.07;47.24;100071.06;5000348;28;20439;-46
2022/09/29 08:04:35;;;;;;;16.38;5.70;;;;;;;21.05;47.33;100070.38;5002797;28;20060;-46
2022/09/29 08:07:00;;;;;;;15.50;5.88;;;;;;;21.08;47.19;100073.59;5002872;28;20072;-48
2022/09/29 08:09:26;;;;;;;11.40;5.75;;;;;;;21.07;47.21;100079.13;5000813;28;20053;-47
2022/09/29 08:11:51;;;;;;;13.50;6.40;;;;;;;21.07;47.12;100076.44;5004412;28;20037;-46
2022/09/29 08:14:16;;;;;;;14.52;5.72;;;;;;;21.06;47.52;100080.13;5002212;28;20048;-45
2022/09/29 08:16:42;;;;;;;16.35;5.90;;;;;;;21.07;47.68;100092.59;5004291;28;20063;-43
2022/09/29 08:19:07;;;;;;;26.52;9.15;;;;;;;21.06;47.62;100091.75;4999935;28;21472;-39
2022/09/29 08:21:36;;;;;;;43.85;12.50;;;;;;;21.08;47.74;100100.50;5005699;28;20384;-38
2022/09/29 08:24:06;;;;;;;106.50;23.60;;;;;;;21.11;47.42;100100.22;5008169;28;20020;-36
2022/09/29 08:26:36;;;;;;;108.47;23.30;;;;;;;21.16;47.18;100097.03;5007983;28;20039;-37
2022/09/29 08:29:02;;;;;;;77.40;19.63;;;;;;;21.17;47.49;100100.59;5008773;28;21648;-42
2022/09/29 08:31:28;;;;;;;70.68;16.98;;;;;;;21.18;47.51;100105.81;5009043;28;20473;-39
2022/09/29 08:33:56;;;;;;;57.38;15.48;;;;;;;21.15;47.32;100106.13;5009274;28;20493;-38
2022/09/29 08:36:22;;;;;;;56.30;14.55;;;;;;;21.20;47.36;100116.44;5008969;28;20029;-38
2022/09/29 08:38:50;;;;;;;53.03;14.88;;;;;;;21.24;47.31;100129.44;5009627;28;20461;-38
2022/09/29 08:41:42;;;;;;;52.47;14.35;;;;;;;21.25;47.68;100130.25;5008059;28;20037;-39
2022/09/29 08:44:19;;;;;;;55.17;13.85;;;;;;;21.25;47.44;100127.56;5009502;28;20053;-43
2022/09/29 08:46:59;;;;;;;42.08;12.05;;;;;;;21.27;47.15;100137.19;4999892;28;20431;-42
2022/09/29 08:49:36;;;;;;;43.88;12.38;;;;;;;21.32;47.64;100139.41;5004924;28;20075;-40
2022/09/29 08:52:08;;;;;;;33.38;9.73;;;;;;;21.36;47.26;100143.50;5002782;28;20091;-38
2022/09/29 08:54:38;;;;;;;31.73;9.90;;;;;;;21.37;47.25;100147.00;5003987;28;20029;-37
2022/09/29 08:57:05;;;;;;;30.90;8.38;;;;;;;21.39;47.41;100150.41;5003449;28;20044;-41
2022/09/29 08:59:31;;;;;;;27.15;8.85;;;;;;;21.42;47.49;100148.25;5004966;28;20501;-42
2022/09/29 09:02:20;;;;;;;26.27;8.88;;;;;;;21.47;47.51;100147.78;5004679;28;20033;-39
2022/09/29 09:05:35;;;;;;;28.23;8.48;;;;;;;21.49;47.52;100147.63;5005216;28;20489;-43
2022/09/29 09:08:11;;;;;;;23.98;7.82;;;;;;;21.54;47.21;100156.09;4999752;28;20049;-36
2022/09/29 09:10:48;;;;;;;21.67;7.13;;;;;;;21.56;47.51;100154.09;5001849;28;20072;-38
2022/09/29 09:13:36;;;;;;;19.73;6.60;;;;;;;21.57;47.17;100153.97;5004294;28;20401;-39
2022/09/29 09:16:19;;;;;;;23.13;6.82;;;;;;;21.59;46.95;100156.50;5002541;28;20036;-39
2022/09/29 09:18:52;;;;;;;18.73;6.75;;;;;;;21.62;47.48;100153.47;5003305;28;20687;-39
2022/09/29 09:21:24;;;;;;;15.02;5.85;;;;;;;21.63;47.40;100160.56;5003689;28;20041;-37
2022/09/29 09:23:55;;;;;;;18.60;6.10;;;;;;;21.65;47.11;100152.31;5004098;28;20099;-36
2022/09/29 09:26:42;;;;;;;14.93;5.18;;;;;;;21.66;47.25;100148.63;5005486;28;20068;-36
2022/09/29 09:29:27;;;;;;;14.73;5.60;;;;;;;21.69;47.46;100157.22;5008930;28;20113;-39
2022/09/29 09:31:59;;;;;;;12.48;5.07;;;;;;;21.71;47.45;100157.06;5008259;28;20115;-41
2022/09/29 09:34:44;;;;;;;14.57;5.03;;;;;;;21.73;47.41;100158.59;5009276;28;20033;-40
2022/09/29 09:37:24;;;;;;;19.35;5.53;;;;;;;21.72;47.35;100156.91;5001251;28;20357;-43
2022/09/29 09:39:56;;;;;;;16.00;4.50;;;;;;;21.65;47.95;100163.09;5001488;28;20110;-51
2022/09/29 09:42:28;;;;;;;11.50;4.38;;;;;;;21.60;47.87;100159.03;5003554;28;20543;-41
2022/09/29 09:45:04;;;;;;;12.43;4.25;;;;;;;21.61;48.21;100165.25;5003306;28;20079;-40
2022/09/29 09:47:48;;;;;;;13.25;4.43;;;;;;;21.62;48.53;100158.84;5002912;28;20410;-40
2022/09/29 09:50:19;;;;;;;15.30;4.07;;;;;;;21.65;48.18;100163.09;5003562;28;20389;-40
2022/09/29 09:53:07;;;;;;;8.88;3.95;;;;;;;21.63;48.17;100160.56;5004313;28;20048;-41
2022/09/29 09:55:40;;;;;;;12.73;3.85;;;;;;;21.63;48.34;100159.72;4993902;28;20119;-52
2022/09/29 09:58:27;;;;;;;8.77;3.58;;;;;;;21.64;48.57;100169.47;5003075;28;20055;-53
2022/09/29 10:01:01;;;;;;;9.18;3.08;;;;;;;21.63;48.33;100168.63;5004105;28;20060;-53
2022/09/29 10:03:28;;;;;;;55.42;13.85;;;;;;;21.62;48.85;100164.25;5003705;28;20040;-52
2022/09/29 10:05:54;;;;;;;70.00;18.25;;;;;;;21.64;48.75;100172.16;5003217;28;20044;-54
2022/09/29 10:08:38;;;;;;;72.82;19.23;;;;;;;21.64;48.96;100166.78;5000570;28;21532;-54
2022/09/29 10:11:20;;;;;;;62.17;17.13;;;;;;;21.63;48.79;100165.94;5001648;28;20249;-50
2022/09/29 10:13:47;;;;;;;57.45;15.50;;;;;;;21.66;48.90;100168.31;5001485;28;20112;-49
2022/09/29 10:16:41;;;;;;;49.90;15.18;;;;;;;21.67;48.84;100166.47;5003499;28;20030;-52
2022/09/29 10:19:06;;;;;;;47.08;13.30;;;;;;;21.68;48.86;100165.47;4985230;28;20060;-54
2022/09/29 10:21:38;;;;;;;42.25;13.48;;;;;;;21.69;48.85;100168.00;5000884;28;20028;-53
2022/09/29 10:24:07;;;;;;;37.58;11.70;;;;;;;21.71;48.59;100168.69;5003169;28;20138;-40
2022/09/29 10:26:38;;;;;;;38.05;11.93;;;;;;;21.73;49.04;100172.06;5001557;28;20037;-41
2022/09/29 10:29:38;;;;;;;34.10;10.75;;;;;;;21.74;48.56;100176.47;5002870;28;20219;-40
2022/09/29 10:32:22;;;;;;;34.25;10.50;;;;;;;21.77;48.59;100176.13;4998953;28;20041;-41
2022/09/29 10:34:53;;;;;;;30.40;9.77;;;;;;;21.78;48.76;100171.63;5002081;28;20041;-40
2022/09/29 10:37:25;;;;;;;;;;;;;;;21.83;48.62;100179.19;5002407;28;20044;-42
2022/09/29 10:40:06;;;;;;;27.70;8.93;;;;;;;21.83;48.75;100171.97;5001384;28;19921;-41
2022/09/29 10:42:35;;;;;;;24.52;8.93;;;;;;;21.84;48.46;100180.91;5002568;28;20148;-41
2022/09/29 10:45:11;;;;;;;31.85;8.45;;;;;;;21.92;48.61;100183.66;4999776;28;20116;-38
2022/09/29 10:47:37;;;;;;;22.95;7.88;;;;;;;21.97;48.38;100188.56;5001631;28;20244;-41
2022/09/29 10:50:15;;;;;;;19.65;7.00;;;;;;;21.99;48.58;100182.00;5000375;28;20059;-41
2022/09/29 10:52:42;;;;;;;21.05;7.22;;;;;;;22.03;48.29;100180.66;5001556;28;20043;-43
2022/09/29 10:55:16;;;;;;;22.15;6.15;;;;;;;22.04;48.00;100182.38;5002222;28;20115;-41
2022/09/29 10:57:43;;;;;;;16.15;5.70;;;;;;;22.08;47.96;100193.69;5002465;28;20116;-39
2022/09/29 11:00:25;;;;;;;14.55;5.65;;;;;;;22.10;47.80;100179.03;5000192;28;20393;-40
2022/09/29 11:02:52;;;;;;;20.08;6.03;;;;;;;22.12;47.96;100184.25;5000214;28;20036;-39
2022/09/29 11:05:22;;;;;;;15.68;5.18;;;;;;;22.12;47.87;100188.81;5003396;28;20037;-54
2022/09/29 11:07:50;;;;;;;54.08;6.97;;;;;;;22.17;47.95;100181.09;5004000;28;20134;-56
2022/09/29 11:10:36;;;;;;;16.42;5.63;;;;;;;22.21;48.13;100190.56;5009824;28;21372;-45
2022/09/29 11:13:23;;;;;;;15.93;4.93;;;;;;;22.22;48.01;100186.84;5000367;28;20537;-48
2022/09/29 11:15:50;;;;;;;13.43;4.70;;;;;;;22.20;47.89;100202.34;5001630;28;20081;-48
2022/09/29 11:18:37;;;;;;;14.02;3.97;;;;;;;22.17;48.02;100197.28;5001498;28;20037;-49
2022/09/29 11:21:20;;;;;;;11.43;4.32;;;;;;;22.18;48.13;100201.66;5001224;28;20540;-47
2022/09/29 11:24:19;;;;;;;9.85;3.67;;;;;;;22.17;47.88;100195.41;5002039;28;20153;-48
2022/09/29 11:26:54;;;;;;;8.77;3.47;;;;;;;22.15;47.96;100196.56;5001589;28;20073;-48
2022/09/29 11:29:44;;;;;;;10.77;3.42;;;;;;;22.17;47.83;100195.41;5001277;28;20035;-45
2022/09/29 11:32:20;;;;;;;9.68;3.33;;;;;;;22.16;47.84;100200.97;5000573;28;20379;-45
2022/09/29 11:35:10;;;;;;;9.02;3.10;;;;;;;22.18;47.82;100199.81;5001327;28;20124;-48
2022/09/29 11:37:55;;;;;;;7.78;3.40;;;;;;;22.27;47.79;100200.69;5002585;28;20259;-39
2022/09/29 11:40:40;;;;;;;6.95;3.03;;;;;;;22.34;47.46;100207.16;4999860;28;20513;-45
2022/09/29 11:43:32;;;;;;;7.88;2.92;;;;;;;22.38;47.46;100215.81;5002742;28;20496;-38
2022/09/29 11:46:27;;;;;;;9.15;2.92;;;;;;;22.40;47.64;100213.78;5001887;28;20364;-38